Time;durP1;ratioP1;P1;durP2;ratioP2;P2;SDS_P1;SDS_P2;PMS_P1;PMS_P2;Temp;Humidity;BMP_temperature;BMP_pressure;BME280_temperature;BME280_humidity;BME280_pressure;Samples;Min_cycle;Max_cycle;Signal;HPM_P1;HPM_P2
2022/08/21 00:00:19;;;;;;;4.03;2.00;;;18.70;99.90;;;;;;4954722;28;20019;-73
2022/08/21 00:02:50;;;;;;;3.47;2.03;;;18.70;99.90;;;;;;4955013;28;20179;-73
2022/08/21 00:05:16;;;;;;;6.22;2.45;;;18.70;99.90;;;;;;4955124;28;20039;-73
2022/08/21 00:07:42;;;;;;;3.65;2.30;;;18.80;99.90;;;;;;4955158;28;20425;-74
2022/08/21 00:10:08;;;;;;;4.78;2.00;;;18.80;99.90;;;;;;4955083;28;20027;-74
2022/08/21 00:12:34;;;;;;;4.97;2.58;;;18.80;99.90;;;;;;4954874;28;20023;-72
2022/08/21 00:14:59;;;;;;;4.53;2.67;;;18.90;99.90;;;;;;4955024;28;20027;-73
2022/08/21 00:17:26;;;;;;;4.43;2.38;;;18.90;99.90;;;;;;4954381;28;20042;-74
2022/08/21 00:19:51;;;;;;;3.85;2.38;;;18.90;99.90;;;;;;4953952;28;20082;-74
2022/08/21 00:22:17;;;;;;;4.68;2.10;;;19.00;99.90;;;;;;4953768;28;20031;-62
2022/08/21 00:24:43;;;;;;;3.95;2.00;;;18.90;99.90;;;;;;4953700;28;20114;-72
2022/08/21 00:27:09;;;;;;;3.28;2.03;;;19.00;99.90;;;;;;4954254;28;20015;-73
2022/08/21 00:29:35;;;;;;;5.45;2.42;;;19.00;99.90;;;;;;4957927;28;20031;-73
2022/08/21 00:32:01;;;;;;;3.33;2.30;;;19.10;99.90;;;;;;4954320;28;20485;-73
2022/08/21 00:34:26;;;;;;;3.70;2.38;;;19.10;99.90;;;;;;4953971;28;20561;-67
2022/08/21 00:36:52;;;;;;;6.28;2.95;;;19.20;99.90;;;;;;4953390;28;20525;-71
2022/08/21 00:39:18;;;;;;;4.57;2.70;;;19.30;99.90;;;;;;4953805;28;20470;-71
2022/08/21 00:41:45;;;;;;;5.32;3.53;;;19.30;99.90;;;;;;4953555;28;20011;-69
2022/08/21 00:44:15;;;;;;;7.93;3.85;;;19.40;99.90;;;;;;4953456;28;20493;-69
2022/08/21 00:46:42;;;;;;;6.20;3.80;;;19.40;99.90;;;;;;4953710;28;20489;-74
2022/08/21 00:49:09;;;;;;;7.63;4.00;;;19.50;99.90;;;;;;4953630;28;20113;-72
2022/08/21 00:51:40;;;;;;;7.22;4.13;;;19.50;99.90;;;;;;4954173;28;20110;-73
2022/08/21 00:54:07;;;;;;;8.00;4.28;;;19.60;99.90;;;;;;4953139;28;20390;-73
2022/08/21 00:56:34;;;;;;;6.72;4.22;;;19.70;99.90;;;;;;4953690;28;20501;-72
2022/08/21 00:59:01;;;;;;;7.13;4.10;;;19.70;99.90;;;;;;4953935;28;20047;-72
2022/08/21 01:01:27;;;;;;;7.00;4.65;;;19.70;99.90;;;;;;4953574;28;20091;-72
2022/08/21 01:03:53;;;;;;;8.30;5.03;;;19.80;99.90;;;;;;4953696;28;20031;-70
2022/08/21 01:06:19;;;;;;;9.20;5.25;;;19.80;99.90;;;;;;4956964;28;20020;-74
2022/08/21 01:08:46;;;;;;;9.10;5.15;;;19.80;99.90;;;;;;4953971;28;20035;-74
2022/08/21 01:11:13;;;;;;;9.85;5.18;;;19.80;99.90;;;;;;4954559;28;20106;-67
2022/08/21 01:13:45;;;;;;;9.38;5.55;;;19.80;99.90;;;;;;4977181;28;20054;-72
2022/08/21 01:16:13;;;;;;;9.07;5.90;;;19.80;99.90;;;;;;4954769;28;20039;-71
2022/08/21 01:18:39;;;;;;;11.02;6.47;;;19.90;99.90;;;;;;4953128;28;20039;-71
2022/08/21 01:21:11;;;;;;;11.52;6.63;;;19.80;99.90;;;;;;4954731;28;20125;-71
2022/08/21 01:23:41;;;;;;;9.57;5.38;;;19.80;99.90;;;;;;4954554;28;20024;-71
2022/08/21 01:26:07;;;;;;;13.85;6.28;;;19.80;99.90;;;;;;4950787;28;20497;-70
2022/08/21 01:28:37;;;;;;;12.85;6.00;;;19.80;99.90;;;;;;4954588;28;20035;-72
2022/08/21 01:31:06;;;;;;;9.32;6.05;;;19.80;99.90;;;;;;4954405;28;20465;-62
2022/08/21 01:33:31;;;;;;;11.02;6.70;;;19.90;99.90;;;;;;4954510;28;20029;-71
2022/08/21 01:35:57;;;;;;;14.68;7.35;;;19.90;99.90;;;;;;4954641;28;20027;-71
2022/08/21 01:38:24;;;;;;;12.60;7.03;;;19.90;99.90;;;;;;4952808;29;20437;-71
2022/08/21 01:40:50;;;;;;;12.55;6.25;;;19.90;99.90;;;;;;4951145;29;20110;-71
2022/08/21 01:43:15;;;;;;;10.77;6.47;;;19.90;99.90;;;;;;4954304;28;20447;-72
2022/08/21 01:45:41;;;;;;;11.25;6.18;;;19.90;99.90;;;;;;4954536;28;20051;-71
2022/08/21 01:48:08;;;;;;;9.52;6.50;;;19.90;99.90;;;;;;4954034;28;20042;-71
2022/08/21 01:50:34;;;;;;;12.73;7.15;;;19.90;99.90;;;;;;4954152;28;20392;-70
2022/08/21 01:53:00;;;;;;;11.82;6.43;;;19.90;99.90;;;;;;4953729;28;20417;-71
2022/08/21 01:55:26;;;;;;;13.07;7.20;;;19.90;99.90;;;;;;4956435;28;20035;-62
2022/08/21 01:57:52;;;;;;;11.10;7.13;;;19.80;99.90;;;;;;4957667;28;20035;-71
2022/08/21 02:00:22;;;;;;;10.00;6.57;;;19.80;99.90;;;;;;4957721;28;20035;-73
2022/08/21 02:02:49;;;;;;;10.85;5.82;;;19.80;99.90;;;;;;4957946;28;20027;-73
2022/08/21 02:05:15;;;;;;;11.48;5.68;;;19.80;99.90;;;;;;4957263;28;20039;-72
2022/08/21 02:07:48;;;;;;;8.75;5.82;;;19.90;99.90;;;;;;4957969;28;20051;-72
2022/08/21 02:10:18;;;;;;;13.38;5.60;;;19.80;99.90;;;;;;4957614;28;20031;-72
2022/08/21 02:12:44;;;;;;;11.88;5.60;;;19.80;99.90;;;;;;4956660;29;20089;-70
2022/08/21 02:15:10;;;;;;;11.38;6.30;;;19.90;99.90;;;;;;4957187;28;20043;-72
2022/08/21 02:17:45;;;;;;;12.07;5.60;;;19.80;99.90;;;;;;4957605;28;20039;-66
2022/08/21 02:20:17;;;;;;;6.97;5.35;;;19.80;99.90;;;;;;4957399;28;20059;-71
2022/08/21 02:22:42;;;;;;;11.83;6.53;;;19.80;99.90;;;;;;4956716;28;20407;-72
2022/08/21 02:25:09;;;;;;;7.60;5.15;;;19.90;99.90;;;;;;4957994;28;20027;-70
2022/08/21 02:27:43;;;;;;;13.32;6.07;;;19.90;99.90;;;;;;4957898;29;20019;-72
2022/08/21 02:30:15;;;;;;;9.13;5.25;;;19.90;99.90;;;;;;4959756;28;20474;-72
2022/08/21 02:32:42;;;;;;;10.50;5.00;;;19.90;99.90;;;;;;4957356;28;20019;-67
2022/08/21 02:35:09;;;;;;;8.35;5.30;;;19.90;99.90;;;;;;4957518;28;20139;-72
2022/08/21 02:38:02;;;;;;;10.40;4.28;;;19.90;99.90;;;;;;4955121;28;20027;-72
2022/08/21 02:40:33;;;;;;;8.75;4.80;;;20.00;99.90;;;;;;4956673;29;20032;-72
2022/08/21 02:43:00;;;;;;;12.98;5.15;;;19.90;99.90;;;;;;4956779;29;20038;-72
2022/08/21 02:45:28;;;;;;;9.65;5.30;;;20.00;99.90;;;;;;4971732;28;20074;-72
2022/08/21 02:47:57;;;;;;;7.10;4.50;;;20.00;99.90;;;;;;4956926;28;20034;-72
2022/08/21 02:50:30;;;;;;;6.55;4.25;;;19.90;99.90;;;;;;4957101;28;20066;-73
2022/08/21 02:52:57;;;;;;;6.90;4.25;;;20.00;99.90;;;;;;4956564;28;20019;-72
2022/08/21 02:55:26;;;;;;;6.78;3.85;;;19.90;99.90;;;;;;4957096;28;20023;-72
2022/08/21 02:57:53;;;;;;;7.80;3.85;;;19.90;99.90;;;;;;4952773;28;20036;-73
2022/08/21 03:00:20;;;;;;;8.90;3.80;;;19.90;99.90;;;;;;4954568;28;20030;-72
2022/08/21 03:02:48;;;;;;;6.18;4.10;;;19.90;99.90;;;;;;4956671;29;20047;-72
2022/08/21 03:05:14;;;;;;;7.90;3.40;;;19.90;99.90;;;;;;4955982;28;20027;-72
2022/08/21 03:07:43;;;;;;;8.75;4.63;;;19.90;99.90;;;;;;4955997;28;20085;-73
2022/08/21 03:10:09;;;;;;;7.65;3.88;;;20.00;99.90;;;;;;4971239;28;20034;-72
2022/08/21 03:12:36;;;;;;;9.07;3.80;;;20.00;99.90;;;;;;4956098;28;20027;-70
2022/08/21 03:15:06;;;;;;;10.32;4.10;;;20.00;99.90;;;;;;4955794;29;20066;-72
2022/08/21 03:17:33;;;;;;;7.57;3.72;;;20.00;99.90;;;;;;4956243;28;20049;-71
2022/08/21 03:20:00;;;;;;;8.52;4.03;;;20.00;99.90;;;;;;4956165;28;20111;-72
2022/08/21 03:22:26;;;;;;;9.27;4.00;;;20.00;99.90;;;;;;4956372;29;20042;-72
2022/08/21 03:24:53;;;;;;;5.28;3.75;;;20.10;99.90;;;;;;4956103;28;20477;-72
2022/08/21 03:27:19;;;;;;;7.88;4.13;;;20.10;99.90;;;;;;4955164;28;20027;-71
2022/08/21 03:29:45;;;;;;;10.98;3.92;;;20.10;99.90;;;;;;4956120;29;20406;-71
2022/08/21 03:32:11;;;;;;;5.53;3.65;;;20.10;99.90;;;;;;4952105;29;20097;-73
2022/08/21 03:34:38;;;;;;;5.38;3.38;;;20.10;99.90;;;;;;4955974;28;20497;-73
2022/08/21 03:37:06;;;;;;;7.40;4.30;;;20.20;99.90;;;;;;4955045;28;20046;-72
2022/08/21 03:39:33;;;;;;;6.93;3.60;;;20.10;99.90;;;;;;4945421;29;20493;-72
2022/08/21 03:42:00;;;;;;;8.75;3.83;;;20.20;99.90;;;;;;4956024;28;20066;-72
2022/08/21 03:44:28;;;;;;;6.38;4.00;;;20.20;99.90;;;;;;4956309;28;20051;-72
2022/08/21 03:46:55;;;;;;;6.75;4.15;;;20.20;99.90;;;;;;4956605;29;20057;-70
2022/08/21 03:49:21;;;;;;;8.68;4.32;;;20.20;99.90;;;;;;4956071;28;20049;-70
2022/08/21 03:51:47;;;;;;;7.30;4.38;;;20.10;99.90;;;;;;4956193;28;20031;-73
2022/08/21 03:54:13;;;;;;;10.57;4.22;;;20.00;99.90;;;;;;4955774;28;20027;-73
2022/08/21 03:56:39;;;;;;;7.93;4.32;;;20.10;99.90;;;;;;4955742;28;20480;-72
2022/08/21 03:59:05;;;;;;;9.30;5.22;;;20.00;99.90;;;;;;4953750;29;20483;-69
2022/08/21 04:01:32;;;;;;;6.97;4.40;;;20.00;99.90;;;;;;4950586;28;20027;-73
2022/08/21 04:03:58;;;;;;;6.05;3.85;;;20.10;99.90;;;;;;4954204;28;20082;-73
2022/08/21 04:06:26;;;;;;;9.23;4.20;;;20.10;99.90;;;;;;4954536;28;20423;-72
2022/08/21 04:08:53;;;;;;;8.85;4.80;;;20.20;99.90;;;;;;4954328;28;20033;-73
2022/08/21 04:11:19;;;;;;;10.82;4.93;;;20.20;99.90;;;;;;4954042;28;20051;-72
2022/08/21 04:13:45;;;;;;;12.10;4.63;;;20.20;99.90;;;;;;4954267;28;20019;-72
2022/08/21 04:16:12;;;;;;;8.27;4.70;;;20.20;99.90;;;;;;4953964;28;20054;-72
2022/08/21 04:18:38;;;;;;;9.73;5.28;;;20.20;99.90;;;;;;4953965;28;20039;-73
2022/08/21 04:21:05;;;;;;;9.38;5.65;;;20.30;99.90;;;;;;4954407;28;20488;-72
2022/08/21 04:23:31;;;;;;;9.18;5.28;;;20.30;99.90;;;;;;4953837;28;20359;-72
2022/08/21 04:25:58;;;;;;;11.80;6.35;;;20.30;99.90;;;;;;4954382;28;20117;-69
2022/08/21 04:28:26;;;;;;;13.98;5.43;;;20.30;99.90;;;;;;4950426;29;20430;-73
2022/08/21 04:30:52;;;;;;;10.23;5.82;;;20.40;99.90;;;;;;4954161;28;20406;-73
2022/08/21 04:33:18;;;;;;;10.18;5.70;;;20.30;99.90;;;;;;4954185;28;20089;-72
2022/08/21 04:35:44;;;;;;;10.00;5.45;;;20.30;99.90;;;;;;4954250;28;20046;-72
2022/08/21 04:38:10;;;;;;;10.77;5.57;;;20.40;99.90;;;;;;4953892;28;20485;-63
2022/08/21 04:40:36;;;;;;;10.35;5.45;;;20.40;99.90;;;;;;4953683;28;20034;-72
2022/08/21 04:43:04;;;;;;;11.20;6.10;;;20.40;99.90;;;;;;4953879;28;20031;-71
2022/08/21 04:45:34;;;;;;;9.98;6.18;;;20.40;99.90;;;;;;4953801;28;20047;-72
2022/08/21 04:48:02;;;;;;;10.90;5.90;;;20.50;99.90;;;;;;4953995;28;20039;-72
2022/08/21 04:50:39;;;;;;;15.60;7.18;;;20.50;99.90;;;;;;4953861;28;20030;-71
2022/08/21 04:53:13;;;;;;;13.65;6.43;;;20.50;99.90;;;;;;4949766;28;20050;-71
2022/08/21 04:55:42;;;;;;;13.52;7.03;;;20.60;99.90;;;;;;4953564;28;20134;-71
2022/08/21 04:58:11;;;;;;;15.85;7.38;;;20.70;99.90;;;;;;4953423;28;20125;-71
2022/08/21 05:00:37;;;;;;;12.20;7.32;;;20.80;99.90;;;;;;4952978;28;20496;-64
2022/08/21 05:03:06;;;;;;;11.35;6.45;;;20.80;99.90;;;;;;4953238;28;20034;-72
2022/08/21 05:05:32;;;;;;;13.20;7.05;;;20.80;99.90;;;;;;4953492;28;20023;-72
2022/08/21 05:08:01;;;;;;;10.23;5.55;;;20.80;99.90;;;;;;4953418;29;20470;-73
2022/08/21 05:10:27;;;;;;;11.43;4.60;;;20.60;99.90;;;;;;4952801;28;20023;-71
2022/08/21 05:12:54;;;;;;;6.18;4.18;;;20.50;99.90;;;;;;4952773;28;20386;-73
2022/08/21 05:15:20;;;;;;;10.02;4.50;;;20.50;99.90;;;;;;4953533;28;20481;-68
2022/08/21 05:17:47;;;;;;;8.77;4.40;;;20.50;99.90;;;;;;4953336;28;20023;-63
2022/08/21 05:20:14;;;;;;;8.85;4.72;;;20.50;99.90;;;;;;4952673;28;20043;-67
2022/08/21 05:22:40;;;;;;;9.18;4.43;;;20.60;99.90;;;;;;4953383;28;20025;-71
2022/08/21 05:25:08;;;;;;;8.07;4.82;;;20.60;99.90;;;;;;4953285;28;20035;-72
2022/08/21 05:27:33;;;;;;;9.18;5.20;;;20.60;99.90;;;;;;4953103;28;20529;-72
2022/08/21 05:29:59;;;;;;;9.93;5.95;;;20.60;99.90;;;;;;4953396;28;20150;-72
2022/08/21 05:32:27;;;;;;;10.23;5.95;;;20.70;99.90;;;;;;4953246;28;20138;-62
2022/08/21 05:34:54;;;;;;;15.05;7.70;;;20.60;99.90;;;;;;4953136;28;20529;-73
2022/08/21 05:37:20;;;;;;;15.95;8.48;;;20.50;99.90;;;;;;4952932;28;20031;-72
2022/08/21 05:39:46;;;;;;;16.83;9.25;;;20.50;99.90;;;;;;4952902;28;20137;-72
2022/08/21 05:42:12;;;;;;;20.30;10.10;;;20.50;99.90;;;;;;4951470;28;20645;-72
2022/08/21 05:44:38;;;;;;;16.75;11.07;;;20.50;99.90;;;;;;4952112;28;20047;-72
2022/08/21 05:47:09;;;;;;;15.27;9.88;;;20.50;99.90;;;;;;4952719;28;20035;-72
2022/08/21 05:49:36;;;;;;;17.17;10.88;;;20.30;99.90;;;;;;4951317;29;20038;-74
2022/08/21 05:52:02;;;;;;;17.20;11.77;;;20.30;99.90;;;;;;4954201;28;20027;-70
2022/08/21 05:54:28;;;;;;;17.45;10.32;;;20.20;99.90;;;;;;4951149;28;20082;-71
2022/08/21 05:56:54;;;;;;;15.48;9.55;;;20.10;99.90;;;;;;4952323;28;20020;-70
2022/08/21 05:59:20;;;;;;;16.20;9.27;;;19.90;99.90;;;;;;4952411;28;20047;-70
2022/08/21 06:01:46;;;;;;;12.70;8.40;;;19.80;99.90;;;;;;4953320;28;20024;-64
2022/08/21 06:04:13;;;;;;;19.17;9.05;;;19.70;99.90;;;;;;4951800;28;20122;-73
2022/08/21 06:06:39;;;;;;;15.75;9.13;;;19.70;99.90;;;;;;4952166;28;20023;-71
2022/08/21 06:09:05;;;;;;;14.15;8.77;;;19.60;99.90;;;;;;4952507;28;20031;-71
2022/08/21 06:11:33;;;;;;;15.05;9.27;;;19.60;99.90;;;;;;4952624;28;20061;-73
2022/08/21 06:13:59;;;;;;;12.63;7.75;;;19.50;99.90;;;;;;4952134;28;20023;-71
2022/08/21 06:16:26;;;;;;;11.18;7.65;;;19.50;99.90;;;;;;4952435;28;20046;-73
2022/08/21 06:18:52;;;;;;;12.45;7.47;;;19.40;99.90;;;;;;4952562;28;20035;-73
2022/08/21 06:21:18;;;;;;;9.77;6.57;;;19.40;99.90;;;;;;4952201;28;20030;-73
2022/08/21 06:23:44;;;;;;;12.45;6.88;;;19.40;99.90;;;;;;4952338;28;20419;-75
2022/08/21 06:26:13;;;;;;;12.98;7.20;;;19.30;99.90;;;;;;4952320;28;20034;-72
2022/08/21 06:28:39;;;;;;;15.68;8.18;;;19.30;99.90;;;;;;4952486;28;20038;-72
2022/08/21 06:31:14;;;;;;;12.27;7.65;;;19.30;99.90;;;;;;4951868;28;20034;-71
2022/08/21 06:33:40;;;;;;;15.30;8.32;;;19.30;99.90;;;;;;4951366;28;20031;-71
2022/08/21 06:36:06;;;;;;;15.40;8.68;;;19.30;99.90;;;;;;4949155;28;20580;-69
2022/08/21 06:38:31;;;;;;;8.85;6.00;;;19.30;99.90;;;;;;4949621;28;20039;-72
2022/08/21 06:40:57;;;;;;;12.23;7.03;;;19.30;99.90;;;;;;4951645;28;20026;-71
2022/08/21 06:43:23;;;;;;;9.65;6.32;;;19.20;99.90;;;;;;4954333;28;20069;-72
2022/08/21 06:45:49;;;;;;;11.52;7.03;;;19.20;99.90;;;;;;4954625;28;20058;-69
2022/08/21 06:48:15;;;;;;;12.73;7.05;;;19.20;99.90;;;;;;4954536;28;20027;-72
2022/08/21 06:50:41;;;;;;;12.85;7.53;;;19.20;99.90;;;;;;4954947;28;20019;-72
2022/08/21 06:53:10;;;;;;;14.90;7.40;;;19.30;99.90;;;;;;4956295;28;20027;-68
2022/08/21 06:55:37;;;;;;;11.85;7.60;;;19.30;99.90;;;;;;4954920;28;20027;-73
2022/08/21 06:58:04;;;;;;;12.25;7.03;;;19.40;99.90;;;;;;4954320;28;20047;-72
2022/08/21 07:00:31;;;;;;;13.75;7.55;;;19.30;99.90;;;;;;4985947;28;20046;-66
2022/08/21 07:02:57;;;;;;;12.55;7.25;;;19.40;99.90;;;;;;4954458;28;20079;-71
2022/08/21 07:05:26;;;;;;;13.73;8.52;;;19.40;99.90;;;;;;4954235;28;20027;-72
2022/08/21 07:07:51;;;;;;;12.73;8.25;;;19.40;99.90;;;;;;4953860;28;20026;-69
2022/08/21 07:10:17;;;;;;;13.18;7.25;;;19.30;99.90;;;;;;4953504;28;20019;-70
2022/08/21 07:12:43;;;;;;;12.52;7.40;;;19.30;99.90;;;;;;4954349;28;20163;-71
2022/08/21 07:15:10;;;;;;;10.70;6.65;;;19.30;99.90;;;;;;4954779;28;20031;-72
2022/08/21 07:17:36;;;;;;;13.05;7.47;;;19.40;99.90;;;;;;4954749;28;20042;-72
2022/08/21 07:20:03;;;;;;;12.80;7.70;;;19.40;99.90;;;;;;4954382;28;20031;-73
2022/08/21 07:22:29;;;;;;;12.57;7.85;;;19.40;99.90;;;;;;4954394;28;20030;-74
2022/08/21 07:24:55;;;;;;;12.30;6.85;;;19.50;99.90;;;;;;4953778;28;20102;-73
2022/08/21 07:27:21;;;;;;;12.88;7.28;;;19.50;99.90;;;;;;4954072;28;20213;-72
2022/08/21 07:29:47;;;;;;;12.45;7.45;;;19.50;99.90;;;;;;4953535;28;20473;-72
2022/08/21 07:32:14;;;;;;;13.23;8.63;;;19.60;99.90;;;;;;4953865;28;20034;-72
2022/08/21 07:34:41;;;;;;;15.27;8.35;;;19.50;99.90;;;;;;4953894;28;20031;-72
2022/08/21 07:37:07;;;;;;;14.25;8.18;;;19.60;99.90;;;;;;4954461;28;20414;-73
2022/08/21 07:39:33;;;;;;;15.48;8.93;;;19.60;99.90;;;;;;4954130;28;20138;-64
2022/08/21 07:41:58;;;;;;;17.50;8.88;;;19.60;99.90;;;;;;4954182;28;20118;-72
2022/08/21 07:44:24;;;;;;;14.30;8.35;;;19.60;99.90;;;;;;4965999;28;20051;-73
2022/08/21 07:46:50;;;;;;;13.10;7.97;;;19.60;99.90;;;;;;4953061;28;20057;-72
2022/08/21 07:49:16;;;;;;;13.43;7.68;;;19.50;99.90;;;;;;4953130;28;20038;-73
2022/08/21 07:51:42;;;;;;;13.65;8.07;;;19.40;99.90;;;;;;4952031;28;20039;-73
2022/08/21 07:54:08;;;;;;;14.13;7.57;;;19.50;99.90;;;;;;4951697;28;20034;-73
2022/08/21 07:56:34;;;;;;;14.00;7.82;;;19.50;99.90;;;;;;4953236;28;20065;-71
2022/08/21 07:59:02;;;;;;;10.10;6.72;;;19.40;99.90;;;;;;4954347;28;20474;-73
2022/08/21 08:01:28;;;;;;;13.73;6.90;;;19.40;99.90;;;;;;4954734;28;20027;-73
2022/08/21 08:03:55;;;;;;;10.23;6.05;;;19.50;99.90;;;;;;4953914;28;20023;-72
2022/08/21 08:06:22;;;;;;;12.15;7.30;;;19.40;99.90;;;;;;4954141;28;20433;-72
2022/08/21 08:08:48;;;;;;;11.75;7.68;;;19.50;99.90;;;;;;4953661;28;20564;-64
2022/08/21 08:11:15;;;;;;;10.50;6.03;;;19.40;99.90;;;;;;4954276;28;20119;-70
2022/08/21 08:13:43;;;;;;;9.43;5.53;;;19.50;99.90;;;;;;4953766;29;20149;-73
2022/08/21 08:16:09;;;;;;;9.68;6.10;;;19.40;99.90;;;;;;4955212;28;20059;-72
2022/08/21 08:18:35;;;;;;;9.98;6.38;;;19.50;99.90;;;;;;4955163;28;20046;-74
2022/08/21 08:21:01;;;;;;;8.27;5.07;;;19.50;99.90;;;;;;4954951;28;20515;-74
2022/08/21 08:23:27;;;;;;;9.18;6.45;;;19.60;99.90;;;;;;4955218;28;20386;-73
2022/08/21 08:25:53;;;;;;;9.55;6.47;;;19.60;99.90;;;;;;4954959;28;20019;-74
2022/08/21 08:28:19;;;;;;;11.15;6.65;;;19.60;99.90;;;;;;4954116;28;20381;-75
2022/08/21 08:30:46;;;;;;;9.88;6.28;;;19.60;99.90;;;;;;4955526;28;20061;-74
2022/08/21 08:33:13;;;;;;;8.18;5.78;;;19.70;99.90;;;;;;4961028;28;20047;-74
2022/08/21 08:35:40;;;;;;;11.57;6.88;;;19.80;99.90;;;;;;4955175;28;20031;-74
2022/08/21 08:38:06;;;;;;;10.25;6.25;;;19.80;99.90;;;;;;4955270;28;20070;-74
2022/08/21 08:40:55;;;;;;;10.30;6.10;;;19.70;99.90;;;;;;4955079;28;20019;-75
2022/08/21 08:43:21;;;;;;;11.50;5.60;;;19.70;99.90;;;;;;4954800;28;20085;-75
2022/08/21 08:45:53;;;;;;;8.55;5.30;;;19.60;99.90;;;;;;4955112;28;20114;-73
2022/08/21 08:48:36;;;;;;;7.68;4.95;;;19.60;99.90;;;;;;4953371;28;20039;-74
2022/08/21 08:51:06;;;;;;;10.98;5.70;;;19.60;99.90;;;;;;4950613;28;20900;-64
2022/08/21 08:53:54;;;;;;;7.00;4.00;;;19.60;99.90;;;;;;4952866;28;20027;-74
2022/08/21 08:56:27;;;;;;;7.70;4.28;;;19.60;99.90;;;;;;4954478;28;20385;-63
2022/08/21 08:58:55;;;;;;;10.18;4.63;;;19.60;99.90;;;;;;4954125;28;20039;-75
2022/08/21 09:01:21;;;;;;;6.90;4.53;;;19.60;99.90;;;;;;4954271;28;20019;-75
2022/08/21 09:03:49;;;;;;;5.32;3.88;;;19.60;99.90;;;;;;4953558;28;20034;-72
2022/08/21 09:06:32;;;;;;;6.97;4.30;;;19.60;99.90;;;;;;4953428;28;20549;-73
2022/08/21 09:08:58;;;;;;;;;;;19.70;99.90;;;;;;4954642;28;21987;-70
2022/08/21 09:11:40;;;;;;;8.02;4.68;;;19.70;99.90;;;;;;4954717;28;19907;-72
2022/08/21 09:14:21;;;;;;;10.27;5.53;;;19.70;99.90;;;;;;4953598;28;20050;-63
2022/08/21 09:17:01;;;;;;;9.20;5.93;;;19.70;99.90;;;;;;4954507;28;20035;-74
2022/08/21 09:19:33;;;;;;;7.70;4.85;;;19.70;99.90;;;;;;4954319;28;20054;-71
2022/08/21 09:22:30;;;;;;;8.02;5.38;;;19.60;99.90;;;;;;4953656;28;20023;-75
2022/08/21 09:25:12;;;;;;;8.18;5.22;;;19.60;99.90;;;;;;4965799;28;20418;-75
2022/08/21 09:27:39;;;;;;;9.60;5.35;;;19.70;99.90;;;;;;4953880;29;20034;-71
2022/08/21 09:30:06;;;;;;;8.35;4.75;;;19.70;99.90;;;;;;4954631;28;20031;-76
2022/08/21 09:32:35;;;;;;;8.63;5.60;;;19.60;99.90;;;;;;4953934;28;20023;-73
2022/08/21 09:35:13;;;;;;;7.88;5.20;;;19.70;99.90;;;;;;4954265;28;20028;-63
2022/08/21 09:37:53;;;;;;;9.05;5.72;;;19.70;99.90;;;;;;4953864;29;20082;-76
2022/08/21 09:40:40;;;;;;;8.20;5.30;;;19.80;99.90;;;;;;4954111;28;20042;-73
2022/08/21 09:43:12;;;;;;;9.65;6.00;;;19.80;99.90;;;;;;4953054;28;20397;-70
2022/08/21 09:45:41;;;;;;;9.93;5.75;;;19.80;99.90;;;;;;4954157;28;20071;-75
2022/08/21 09:48:13;;;;;;;9.52;5.90;;;19.70;99.90;;;;;;4954081;28;20114;-71
2022/08/21 09:50:40;;;;;;;8.38;4.93;;;19.70;99.90;;;;;;4954338;28;20034;-75
2022/08/21 09:53:15;;;;;;;7.30;4.90;;;19.70;99.90;;;;;;4953557;28;20715;-69
2022/08/21 09:59:01;;;;;;;8.82;5.03;;;19.80;99.90;;;;;;4951614;29;20046;-76
2022/08/21 10:01:27;;;;;;;5.95;4.05;;;19.90;99.90;;;;;;4953125;28;20028;-76
2022/08/21 10:04:08;;;;;;;7.35;5.20;;;20.00;99.90;;;;;;4954050;28;20095;-75
2022/08/21 10:06:34;;;;;;;7.35;4.65;;;20.20;99.90;;;;;;4954493;28;20033;-74
2022/08/21 10:09:07;;;;;;;8.45;4.82;;;20.30;99.90;;;;;;4959514;28;20110;-72
2022/08/21 10:11:34;;;;;;;5.63;3.63;;;20.40;99.90;;;;;;4953731;28;20086;-69
2022/08/21 10:14:20;;;;;;;6.60;3.45;;;20.30;99.90;;;;;;4953074;28;20558;-75
2022/08/21 10:17:05;;;;;;;6.38;3.40;;;20.50;99.90;;;;;;4956731;28;20031;-66
2022/08/21 10:20:01;;;;;;;3.15;2.53;;;20.60;99.90;;;;;;4957543;29;20042;-75
2022/08/21 10:22:29;;;;;;;3.03;2.40;;;20.60;99.90;;;;;;4957827;28;20413;-74
2022/08/21 10:25:01;;;;;;;4.35;3.13;;;20.60;99.90;;;;;;4957079;28;20102;-73
2022/08/21 10:27:35;;;;;;;5.85;3.67;;;20.50;99.90;;;;;;4957025;28;20027;-74
2022/08/21 10:30:34;;;;;;;5.53;3.28;;;20.40;99.90;;;;;;4956855;28;20086;-73
2022/08/21 10:33:26;;;;;;;5.82;3.45;;;20.40;99.90;;;;;;4949819;28;20173;-73
2022/08/21 10:36:24;;;;;;;4.55;3.33;;;20.30;99.90;;;;;;4956192;28;20488;-73
2022/08/21 10:38:54;;;;;;;5.60;3.47;;;20.20;99.90;;;;;;4954749;28;20413;-74
2022/08/21 10:42:08;;;;;;;7.25;3.90;;;20.20;99.90;;;;;;4957044;28;20070;-77
2022/08/21 10:45:08;;;;;;;6.22;3.78;;;20.40;99.90;;;;;;4935508;29;20055;-71
2022/08/21 10:47:46;;;;;;;7.55;3.83;;;20.50;99.90;;;;;;4928953;29;20043;-76
2022/08/21 10:50:23;;;;;;;5.93;3.45;;;20.40;99.90;;;;;;4921516;29;20127;-74
2022/08/21 10:53:07;;;;;;;7.93;4.50;;;20.40;99.90;;;;;;4935406;29;20040;-75
2022/08/21 10:55:47;;;;;;;5.03;3.55;;;20.40;99.90;;;;;;4935919;29;20044;-71
2022/08/21 10:58:28;;;;;;;5.63;4.03;;;20.50;99.90;;;;;;4935375;29;20051;-74
2022/08/21 11:01:09;;;;;;;4.47;3.22;;;20.60;99.90;;;;;;4935303;29;20047;-72
2022/08/21 11:04:04;;;;;;;4.05;3.33;;;20.50;99.90;;;;;;4934373;29;20083;-73
2022/08/21 11:06:32;;;;;;;4.63;3.22;;;20.40;99.90;;;;;;4934400;29;20032;-75
2022/08/21 11:09:10;;;;;;;4.82;3.53;;;20.40;99.90;;;;;;4934332;29;20028;-74
2022/08/21 11:11:45;;;;;;;7.32;4.63;;;20.40;99.90;;;;;;4935365;29;20031;-74
2022/08/21 11:14:35;;;;;;;8.43;5.07;;;20.50;99.90;;;;;;4932604;29;20043;-74
2022/08/21 11:17:09;;;;;;;6.60;3.95;;;20.60;99.90;;;;;;4935641;29;20039;-76
2022/08/21 11:19:56;;;;;;;5.45;3.65;;;20.60;99.90;;;;;;4935259;29;20094;-70
2022/08/21 11:22:47;;;;;;;5.03;2.85;;;20.50;99.90;;;;;;4956698;28;20027;-74
2022/08/21 11:25:22;;;;;;;4.65;2.92;;;20.40;99.90;;;;;;4956633;28;20027;-74
2022/08/21 11:27:58;;;;;;;4.03;3.03;;;20.40;99.90;;;;;;4955809;28;20023;-74
2022/08/21 11:30:32;;;;;;;5.50;3.72;;;20.40;99.90;;;;;;4956735;28;20028;-73
2022/08/21 11:33:03;;;;;;;6.25;3.97;;;20.40;99.90;;;;;;4955534;29;20082;-74
2022/08/21 11:35:59;;;;;;;4.80;3.27;;;20.60;99.90;;;;;;4956243;28;20035;-69
2022/08/21 11:38:34;;;;;;;5.47;3.22;;;20.40;99.90;;;;;;4956204;28;20297;-74
2022/08/21 11:41:15;;;;;;;3.85;2.78;;;20.50;99.90;;;;;;4955429;28;20032;-74
2022/08/21 11:43:48;;;;;;;4.65;3.40;;;20.50;99.90;;;;;;4954971;28;20098;-74
2022/08/21 11:46:37;;;;;;;6.65;3.60;;;20.40;99.90;;;;;;4955586;28;20489;-73
2022/08/21 11:49:26;;;;;;;3.40;2.58;;;20.40;99.90;;;;;;4934752;29;20071;-74
2022/08/21 11:51:58;;;;;;;4.07;2.92;;;20.40;99.90;;;;;;4934247;29;20032;-75
2022/08/21 11:54:33;;;;;;;8.50;3.55;;;20.40;99.90;;;;;;4935106;29;20502;-74
2022/08/21 11:57:24;;;;;;;5.15;3.28;;;20.40;99.90;;;;;;4934618;29;20203;-74
2022/08/21 12:00:17;;;;;;;4.25;3.20;;;20.50;99.90;;;;;;4918668;29;20067;-73
2022/08/21 12:02:49;;;;;;;5.88;3.60;;;20.40;99.90;;;;;;4928183;29;20114;-74
2022/08/21 12:05:38;;;;;;;6.88;4.10;;;20.40;99.90;;;;;;4933282;29;20024;-73
2022/08/21 12:08:14;;;;;;;6.90;3.50;;;20.50;99.90;;;;;;4933488;29;20079;-73
2022/08/21 12:10:45;;;;;;;4.88;3.22;;;20.50;99.90;;;;;;4934407;29;20035;-72
2022/08/21 12:13:28;;;;;;;5.45;3.47;;;20.40;99.90;;;;;;4933007;29;20067;-74
2022/08/21 12:16:07;;;;;;;3.30;2.65;;;20.40;99.90;;;;;;4933929;29;20498;-70
2022/08/21 12:18:33;;;;;;;4.85;3.03;;;20.40;99.90;;;;;;4934071;29;20087;-73
2022/08/21 12:21:24;;;;;;;4.93;2.78;;;20.40;99.90;;;;;;4934020;29;20024;-71
2022/08/21 12:24:13;;;;;;;3.60;2.60;;;20.30;99.90;;;;;;4934119;29;20510;-72
2022/08/21 12:26:50;;;;;;;5.63;2.75;;;20.30;99.90;;;;;;4928682;29;20047;-68
2022/08/21 12:29:32;;;;;;;7.20;3.45;;;20.40;99.90;;;;;;4933790;29;20051;-75
2022/08/21 12:32:05;;;;;;;5.50;3.30;;;20.40;99.90;;;;;;4925172;29;20046;-69
2022/08/21 12:34:40;;;;;;;4.80;3.47;;;20.50;99.90;;;;;;4931865;29;20613;-70
2022/08/21 12:37:14;;;;;;;4.80;3.00;;;20.40;99.90;;;;;;4930767;29;20031;-78
2022/08/21 12:39:46;;;;;;;5.03;3.08;;;20.40;99.90;;;;;;4931819;29;20039;-77
2022/08/21 12:42:17;;;;;;;5.57;3.03;;;20.40;99.90;;;;;;4931199;29;20024;-77
2022/08/21 12:44:59;;;;;;;6.22;2.80;;;20.40;99.90;;;;;;4931553;29;21034;-74
2022/08/21 12:47:43;;;;;;;6.07;3.55;;;20.40;99.90;;;;;;4931226;29;20110;-76
2022/08/21 12:50:14;;;;;;;4.35;3.13;;;20.40;99.90;;;;;;4929741;29;20116;-76
2022/08/21 12:52:51;;;;;;;6.15;3.65;;;20.50;99.90;;;;;;4928463;29;20119;-68
2022/08/21 12:55:28;;;;;;;6.18;3.17;;;20.50;99.90;;;;;;4930376;29;20034;-73
2022/08/21 12:57:54;;;;;;;6.38;4.25;;;20.50;99.90;;;;;;4932425;29;20407;-65
2022/08/21 13:00:23;;;;;;;7.53;4.63;;;20.50;99.90;;;;;;4932413;29;20034;-77
2022/08/21 13:02:50;;;;;;;8.15;4.95;;;20.50;99.90;;;;;;4933466;29;20449;-67